Time;durP1;ratioP1;P1;durP2;ratioP2;P2;SDS_P1;SDS_P2;PMS_P1;PMS_P2;Temp;Humidity;BMP_temperature;BMP_pressure;BME280_temperature;BME280_humidity;BME280_pressure;Samples;Min_cycle;Max_cycle;Signal;HPM_P1;HPM_P2
2022/08/23 00:02:03;;;;;;;15.02;9.30;;;18.90;99.90;;;;;;5028669;28;20205;-75
2022/08/23 00:04:38;;;;;;;14.38;9.45;;;18.80;99.90;;;;;;5027551;28;20217;-76
2022/08/23 00:07:26;;;;;;;13.73;9.45;;;18.80;99.90;;;;;;5025360;28;20214;-76
2022/08/23 00:09:55;;;;;;;10.73;9.32;;;18.70;99.90;;;;;;5028186;28;20241;-75
2022/08/23 00:12:24;;;;;;;12.25;9.32;;;18.70;99.90;;;;;;5032942;28;20665;-75
2022/08/23 00:14:53;;;;;;;16.52;10.38;;;18.70;99.90;;;;;;5035980;28;20739;-75
2022/08/23 00:17:21;;;;;;;14.68;9.68;;;18.60;99.90;;;;;;5026536;28;20245;-75
2022/08/23 00:20:09;;;;;;;15.93;11.32;;;18.60;99.90;;;;;;5026626;28;20609;-76
2022/08/23 00:22:37;;;;;;;16.00;10.88;;;18.50;99.90;;;;;;5028174;28;20294;-77
2022/08/23 00:25:05;;;;;;;15.07;9.73;;;18.50;99.90;;;;;;5027743;28;20221;-75
2022/08/23 00:27:32;;;;;;;15.85;10.77;;;18.40;99.90;;;;;;5027915;28;20218;-75
2022/08/23 00:30:00;;;;;;;14.95;10.18;;;18.40;99.90;;;;;;5027772;28;20221;-75
2022/08/23 00:32:31;;;;;;;12.60;9.50;;;18.40;99.90;;;;;;5027660;28;20248;-76
2022/08/23 00:34:59;;;;;;;17.08;11.65;;;18.40;99.90;;;;;;5027318;28;20237;-75
2022/08/23 00:37:30;;;;;;;16.05;9.93;;;18.40;99.90;;;;;;5027694;28;20312;-74
2022/08/23 00:39:58;;;;;;;13.63;10.43;;;18.40;99.90;;;;;;5027602;28;20355;-75
2022/08/23 00:48:21;;;;;;;14.57;10.95;;;18.20;99.90;;;;;;5027828;28;20256;-76
2022/08/23 00:51:01;;;;;;;17.83;11.23;;;18.20;99.90;;;;;;5027540;28;20260;-76
2022/08/23 00:53:32;;;;;;;14.40;10.57;;;18.20;99.90;;;;;;5026187;28;20267;-75
2022/08/23 00:56:02;;;;;;;14.63;11.00;;;18.10;99.90;;;;;;5025952;28;20205;-75
2022/08/23 00:58:29;;;;;;;12.43;10.53;;;18.10;99.90;;;;;;5027781;28;20656;-75
2022/08/23 01:00:59;;;;;;;20.07;10.90;;;18.10;99.90;;;;;;5026116;28;20245;-75
2022/08/23 01:03:29;;;;;;;16.53;10.80;;;18.10;99.90;;;;;;5026911;28;20283;-75
2022/08/23 01:06:13;;;;;;;12.63;10.73;;;18.10;99.90;;;;;;5027513;28;20316;-76
2022/08/23 01:08:44;;;;;;;12.47;10.03;;;18.10;99.90;;;;;;5020133;28;20259;-76
2022/08/23 01:11:27;;;;;;;13.33;10.53;;;18.10;99.90;;;;;;5020776;28;20206;-74
2022/08/23 01:14:04;;;;;;;11.83;9.33;;;18.00;99.90;;;;;;5029638;28;20668;-75
2022/08/23 01:16:44;;;;;;;15.57;10.27;;;18.00;99.90;;;;;;5027217;28;20687;-74
2022/08/23 01:19:21;;;;;;;11.17;9.93;;;18.00;99.90;;;;;;5026427;28;20549;-76
2022/08/23 01:22:16;;;;;;;11.98;10.45;;;18.00;99.90;;;;;;5027546;28;20271;-75
2022/08/23 01:24:44;;;;;;;12.70;10.17;;;18.00;99.90;;;;;;5023872;28;20680;-76
2022/08/23 01:27:31;;;;;;;11.30;9.68;;;18.00;99.90;;;;;;5027089;28;20210;-75
2022/08/23 01:29:58;;;;;;;14.07;10.38;;;18.00;99.90;;;;;;5031351;28;20205;-75
2022/08/23 01:32:26;;;;;;;16.92;10.18;;;17.90;99.90;;;;;;5031485;28;20212;-76
2022/08/23 01:34:52;;;;;;;13.57;10.45;;;18.00;99.90;;;;;;5030978;28;20267;-76
2022/08/23 01:37:20;;;;;;;16.53;10.27;;;18.00;99.90;;;;;;5031192;28;20248;-75
2022/08/23 01:39:47;;;;;;;12.77;10.20;;;18.00;99.90;;;;;;5029724;28;20206;-75
2022/08/23 01:42:14;;;;;;;15.50;10.70;;;18.00;99.90;;;;;;5030699;28;20341;-74
2022/08/23 01:44:41;;;;;;;14.17;10.53;;;18.00;99.90;;;;;;5030752;28;20207;-76
2022/08/23 01:47:07;;;;;;;17.47;11.00;;;18.00;99.90;;;;;;5030605;28;20265;-77
2022/08/23 01:49:34;;;;;;;13.33;10.13;;;18.00;99.90;;;;;;5030151;28;20209;-75
2022/08/23 01:52:01;;;;;;;15.17;10.80;;;18.00;99.90;;;;;;5031108;28;20225;-76
2022/08/23 01:54:28;;;;;;;17.27;11.50;;;17.90;99.90;;;;;;5030624;28;20205;-77
2022/08/23 01:56:55;;;;;;;14.43;11.50;;;17.90;99.90;;;;;;5029337;28;20233;-75
2022/08/23 01:59:23;;;;;;;14.73;11.53;;;17.80;99.90;;;;;;5028447;28;20226;-76
2022/08/23 02:01:50;;;;;;;20.57;13.07;;;17.80;99.90;;;;;;5030272;28;20210;-75
2022/08/23 02:04:17;;;;;;;17.13;10.87;;;17.80;99.90;;;;;;5021730;28;20291;-74
2022/08/23 02:06:44;;;;;;;17.07;12.40;;;17.70;99.90;;;;;;5030259;28;20238;-75
2022/08/23 02:09:11;;;;;;;18.77;13.45;;;17.70;99.90;;;;;;5029044;28;20291;-74
2022/08/23 02:11:44;;;;;;;22.00;13.50;;;17.70;99.90;;;;;;5033708;28;20292;-75
2022/08/23 02:14:14;;;;;;;17.70;12.20;;;17.70;99.90;;;;;;5036987;28;20257;-74
2022/08/23 02:16:44;;;;;;;19.23;15.33;;;17.70;99.90;;;;;;5029913;28;20218;-75
2022/08/23 02:19:32;;;;;;;19.60;13.13;;;17.70;99.90;;;;;;5030503;28;20309;-75
2022/08/23 02:21:59;;;;;;;14.20;12.27;;;17.60;99.90;;;;;;5029090;28;21147;-76
2022/08/23 02:24:26;;;;;;;14.30;12.77;;;17.60;99.90;;;;;;5028571;28;20206;-74
2022/08/23 02:26:55;;;;;;;17.60;13.93;;;17.60;99.90;;;;;;5028604;28;20767;-75
2022/08/23 02:29:24;;;;;;;20.13;15.20;;;17.60;99.90;;;;;;5028902;28;20300;-75
2022/08/23 02:31:52;;;;;;;20.57;15.20;;;17.60;99.90;;;;;;5029131;28;20206;-75
2022/08/23 02:34:21;;;;;;;16.70;14.33;;;17.60;99.90;;;;;;5028609;28;20217;-76
2022/08/23 02:36:50;;;;;;;21.17;15.13;;;17.50;99.90;;;;;;5035661;28;20224;-75
2022/08/23 02:39:17;;;;;;;18.70;14.00;;;17.50;99.90;;;;;;5028317;28;20658;-75
2022/08/23 02:41:44;;;;;;;19.77;12.90;;;17.50;99.90;;;;;;5027852;28;20516;-76
2022/08/23 02:44:11;;;;;;;16.17;12.77;;;17.50;99.90;;;;;;5028747;28;20233;-75
2022/08/23 02:46:39;;;;;;;16.00;12.70;;;17.50;99.90;;;;;;5028452;28;20271;-75
2022/08/23 02:49:07;;;;;;;15.27;12.07;;;17.50;99.90;;;;;;5028114;28;20245;-75
2022/08/23 02:51:34;;;;;;;15.90;14.20;;;17.50;99.90;;;;;;5029233;28;20259;-74
2022/08/23 02:54:01;;;;;;;18.13;13.20;;;17.50;99.90;;;;;;5028520;28;20210;-75
2022/08/23 02:56:28;;;;;;;19.10;14.13;;;17.50;99.90;;;;;;5028400;28;20673;-74
2022/08/23 02:58:55;;;;;;;15.70;13.33;;;17.40;99.90;;;;;;5028795;28;20279;-76
2022/08/23 03:01:28;;;;;;;18.63;13.03;;;17.50;99.90;;;;;;5029371;28;20260;-75
2022/08/23 03:03:57;;;;;;;16.57;12.57;;;17.40;99.90;;;;;;5029808;28;20214;-76
2022/08/23 03:06:24;;;;;;;17.93;13.80;;;17.40;99.90;;;;;;5028563;28;20257;-75
2022/08/23 03:08:53;;;;;;;16.60;13.33;;;17.40;99.90;;;;;;5028687;28;20767;-77
2022/08/23 03:11:21;;;;;;;15.67;11.33;;;17.30;99.90;;;;;;5029459;28;20213;-74
2022/08/23 03:13:49;;;;;;;15.87;12.67;;;17.40;99.90;;;;;;5041262;28;20734;-75
2022/08/23 03:16:17;;;;;;;15.07;13.03;;;17.30;99.90;;;;;;5029641;28;20202;-76
2022/08/23 03:18:44;;;;;;;16.87;12.03;;;17.30;99.90;;;;;;5030492;28;20355;-75
2022/08/23 03:21:11;;;;;;;15.30;12.70;;;17.30;99.90;;;;;;5029778;28;20209;-74
2022/08/23 03:23:39;;;;;;;18.20;13.50;;;17.30;99.90;;;;;;5029437;28;20327;-75
2022/08/23 03:26:09;;;;;;;19.10;12.63;;;17.30;99.90;;;;;;5028738;28;20264;-75
2022/08/23 03:28:37;;;;;;;15.83;12.03;;;17.30;99.90;;;;;;5028835;28;20267;-75
2022/08/23 03:31:05;;;;;;;17.57;12.60;;;17.20;99.90;;;;;;5029036;28;20696;-75
2022/08/23 03:33:32;;;;;;;15.47;12.47;;;17.20;99.90;;;;;;5029176;28;20279;-75
2022/08/23 03:36:00;;;;;;;14.87;12.97;;;17.20;99.90;;;;;;5029153;28;20236;-74
2022/08/23 03:38:27;;;;;;;18.03;11.87;;;17.10;99.90;;;;;;5028825;28;20206;-75
2022/08/23 03:40:54;;;;;;;17.10;13.17;;;17.00;99.90;;;;;;5028570;28;20263;-76
2022/08/23 03:43:21;;;;;;;18.90;13.97;;;17.10;99.90;;;;;;5028810;28;20723;-75
2022/08/23 03:45:48;;;;;;;18.87;13.20;;;17.00;99.90;;;;;;5028736;28;20237;-75
2022/08/23 03:48:15;;;;;;;14.87;13.27;;;17.00;99.90;;;;;;5027897;28;20198;-74
2022/08/23 03:50:43;;;;;;;17.10;13.60;;;17.00;99.90;;;;;;5028398;28;20220;-75
2022/08/23 03:53:10;;;;;;;16.90;12.47;;;17.00;99.90;;;;;;5027890;28;20236;-76
2022/08/23 03:55:39;;;;;;;19.10;12.47;;;16.90;99.90;;;;;;5029081;28;20220;-75
2022/08/23 03:58:09;;;;;;;21.17;14.90;;;16.90;99.90;;;;;;5027831;28;20205;-75
2022/08/23 04:00:36;;;;;;;19.90;15.47;;;16.90;99.90;;;;;;5026051;28;20264;-75
2022/08/23 04:03:03;;;;;;;17.73;14.33;;;16.90;99.90;;;;;;5027738;28;20210;-75
2022/08/23 04:05:30;;;;;;;17.53;14.20;;;16.90;99.90;;;;;;5027136;28;20241;-75
2022/08/23 04:07:57;;;;;;;17.60;15.00;;;16.90;99.90;;;;;;5026898;28;20218;-75
2022/08/23 04:10:24;;;;;;;20.93;15.33;;;16.90;99.90;;;;;;5026867;28;20234;-75
2022/08/23 04:12:53;;;;;;;20.40;15.07;;;16.80;99.90;;;;;;5036428;28;20265;-75
2022/08/23 04:15:21;;;;;;;22.67;16.50;;;16.80;99.90;;;;;;5032787;28;20213;-74
2022/08/23 04:17:48;;;;;;;19.93;15.77;;;16.90;99.90;;;;;;5027472;28;20205;-75
2022/08/23 04:20:15;;;;;;;18.40;15.73;;;16.80;99.90;;;;;;5026873;28;20225;-76
2022/08/23 04:22:42;;;;;;;20.70;15.73;;;16.80;99.90;;;;;;5025647;28;20209;-76
2022/08/23 04:25:11;;;;;;;20.20;16.53;;;16.80;99.90;;;;;;5027083;28;20628;-75
2022/08/23 04:27:59;;;;;;;20.77;16.07;;;16.70;99.90;;;;;;5033570;28;20390;-75
2022/08/23 04:30:26;;;;;;;23.27;15.53;;;16.70;99.90;;;;;;5028909;28;20210;-75
2022/08/23 04:32:53;;;;;;;19.67;15.67;;;16.70;99.90;;;;;;5027773;28;20233;-76
2022/08/23 04:35:21;;;;;;;20.00;16.13;;;16.70;99.90;;;;;;5028352;28;20228;-75
2022/08/23 04:37:48;;;;;;;23.00;16.83;;;16.70;99.90;;;;;;5022999;28;20210;-75
2022/08/23 04:43:01;;;;;;;20.87;15.97;;;16.60;99.90;;;;;;5027823;28;20209;-77
2022/08/23 04:45:31;;;;;;;22.73;15.80;;;16.60;99.90;;;;;;5027842;28;20209;-75
2022/08/23 04:47:58;;;;;;;20.83;15.67;;;16.70;99.90;;;;;;5028109;28;20532;-75
2022/08/23 04:50:25;;;;;;;17.87;14.77;;;16.60;99.90;;;;;;5027984;28;20228;-75
2022/08/23 04:52:52;;;;;;;22.57;16.60;;;16.60;99.90;;;;;;5028042;28;20213;-76
2022/08/23 04:55:18;;;;;;;20.97;15.77;;;16.70;99.90;;;;;;5028176;28;20252;-75
2022/08/23 04:57:45;;;;;;;21.77;15.77;;;16.70;99.90;;;;;;5022566;28;20595;-75
2022/08/23 05:00:15;;;;;;;19.17;15.37;;;16.70;99.90;;;;;;5027470;28;20216;-76
2022/08/23 05:02:42;;;;;;;18.27;15.40;;;16.80;99.90;;;;;;5023351;28;20696;-76
2022/08/23 05:05:10;;;;;;;17.77;14.73;;;16.80;99.90;;;;;;5030193;28;20253;-76
2022/08/23 05:07:38;;;;;;;20.47;15.00;;;16.80;99.90;;;;;;5031491;28;20237;-76
2022/08/23 05:10:11;;;;;;;20.47;16.53;;;16.90;99.90;;;;;;5031896;28;20233;-75
2022/08/23 05:12:39;;;;;;;24.37;17.27;;;16.90;99.90;;;;;;5030860;28;20198;-76
2022/08/23 05:15:08;;;;;;;22.80;17.13;;;17.00;99.90;;;;;;5029159;28;20661;-75
2022/08/23 05:17:36;;;;;;;19.63;17.53;;;17.00;99.90;;;;;;5030819;28;20218;-75
2022/08/23 05:20:07;;;;;;;24.07;16.37;;;17.10;99.90;;;;;;5032221;28;20684;-75
2022/08/23 05:22:38;;;;;;;24.10;18.30;;;17.10;99.90;;;;;;5031917;28;20240;-77
2022/08/23 05:25:05;;;;;;;21.97;17.30;;;17.20;99.90;;;;;;5031578;28;20210;-76
2022/08/23 05:27:32;;;;;;;25.07;18.30;;;17.30;99.90;;;;;;5031164;28;20298;-75
2022/08/23 05:29:59;;;;;;;25.37;17.23;;;17.30;99.90;;;;;;5031506;28;20202;-76
2022/08/23 05:32:26;;;;;;;25.48;16.80;;;17.50;99.90;;;;;;5030639;28;20546;-76
2022/08/23 05:34:58;;;;;;;23.70;17.00;;;17.50;99.90;;;;;;5031096;28;20210;-76
2022/08/23 05:37:26;;;;;;;26.00;17.00;;;17.70;99.90;;;;;;5030493;28;20217;-76
2022/08/23 05:39:52;;;;;;;23.67;15.40;;;17.80;99.90;;;;;;5031547;28;20202;-74
2022/08/23 05:42:19;;;;;;;24.58;15.88;;;18.00;99.90;;;;;;5031371;28;20232;-74
2022/08/23 05:44:46;;;;;;;22.42;16.02;;;18.10;99.90;;;;;;5029145;28;20629;-75
2022/08/23 05:47:15;;;;;;;17.85;14.23;;;18.20;99.90;;;;;;5029602;28;20500;-74
2022/08/23 05:49:43;;;;;;;16.58;13.60;;;18.30;99.90;;;;;;5030375;28;20280;-76
2022/08/23 05:52:12;;;;;;;16.95;13.73;;;18.50;99.90;;;;;;5029592;28;20214;-75
2022/08/23 05:54:39;;;;;;;19.10;14.27;;;18.60;99.90;;;;;;5030096;28;20209;-77
2022/08/23 05:57:06;;;;;;;20.05;13.55;;;18.60;99.90;;;;;;5029536;28;20213;-76
2022/08/23 05:59:33;;;;;;;20.35;15.13;;;18.70;99.90;;;;;;5029627;28;20279;-79
2022/08/23 06:02:00;;;;;;;18.92;14.43;;;18.90;99.90;;;;;;5030161;28;20563;-75
2022/08/23 06:04:27;;;;;;;19.52;14.25;;;19.00;99.90;;;;;;5031255;28;20253;-77
2022/08/23 06:06:57;;;;;;;16.83;13.63;;;19.20;99.90;;;;;;5030968;28;20239;-77
2022/08/23 06:09:25;;;;;;;19.38;13.18;;;19.40;99.90;;;;;;5031238;28;20233;-76
2022/08/23 06:11:52;;;;;;;17.88;13.48;;;19.50;99.90;;;;;;5031133;28;20205;-78
2022/08/23 06:14:19;;;;;;;17.73;13.75;;;19.70;99.90;;;;;;5029326;28;20198;-76
2022/08/23 06:16:48;;;;;;;19.00;13.82;;;19.80;99.90;;;;;;5028982;28;20297;-76
2022/08/23 06:19:22;;;;;;;21.08;14.73;;;19.90;99.90;;;;;;5031187;28;20267;-75
2022/08/23 06:21:51;;;;;;;17.85;14.45;;;20.00;99.90;;;;;;5030580;28;20271;-76
2022/08/23 06:24:18;;;;;;;20.85;14.40;;;20.10;99.90;;;;;;5030571;28;20225;-77
2022/08/23 06:26:46;;;;;;;19.55;15.32;;;20.20;99.90;;;;;;5030028;28;20336;-76
2022/08/23 06:29:16;;;;;;;20.83;14.43;;;20.30;99.90;;;;;;5030608;28;20256;-76
2022/08/23 06:31:47;;;;;;;20.88;15.98;;;20.30;99.90;;;;;;5029289;28;20221;-77
2022/08/23 06:34:24;;;;;;;21.73;15.93;;;20.40;99.90;;;;;;5029176;28;20226;-76
2022/08/23 06:36:56;;;;;;;24.38;16.90;;;20.50;99.90;;;;;;5030203;28;20271;-77
2022/08/23 06:39:27;;;;;;;21.30;17.70;;;20.50;99.90;;;;;;5030400;28;20209;-76
2022/08/23 06:41:59;;;;;;;21.42;16.27;;;20.50;99.90;;;;;;5029239;28;20226;-76
2022/08/23 06:44:27;;;;;;;22.00;15.38;;;20.60;99.90;;;;;;5031258;28;20208;-77
2022/08/23 06:46:55;;;;;;;23.88;16.05;;;20.60;99.90;;;;;;5033987;28;20261;-77
2022/08/23 06:49:23;;;;;;;18.83;15.55;;;20.60;99.90;;;;;;5029027;28;20221;-75
2022/08/23 06:51:54;;;;;;;20.05;15.55;;;20.70;99.90;;;;;;5029000;28;20659;-75
2022/08/23 06:54:27;;;;;;;19.52;16.30;;;20.80;99.90;;;;;;5023800;28;20317;-78
2022/08/23 06:56:55;;;;;;;19.13;14.75;;;20.90;99.90;;;;;;5028680;28;20292;-74
2022/08/23 06:59:22;;;;;;;19.63;15.00;;;21.00;99.90;;;;;;5027793;28;20205;-75
2022/08/23 07:02:06;;;;;;;22.40;16.63;;;21.10;99.90;;;;;;5028795;28;20647;-76
2022/08/23 07:04:37;;;;;;;18.30;15.95;;;21.20;99.90;;;;;;5029085;28;20226;-77
2022/08/23 07:07:05;;;;;;;18.80;16.75;;;21.30;99.90;;;;;;5025516;28;20304;-76
2022/08/23 07:09:38;;;;;;;20.05;16.38;;;21.40;99.90;;;;;;5028981;28;20269;-75
2022/08/23 07:12:05;;;;;;;18.70;15.35;;;21.50;99.90;;;;;;5029253;28;20244;-78
2022/08/23 07:14:32;;;;;;;17.42;15.43;;;21.70;99.90;;;;;;5028715;28;20537;-76
2022/08/23 07:17:02;;;;;;;20.90;15.52;;;21.80;99.90;;;;;;5027842;28;20214;-77
2022/08/23 07:19:32;;;;;;;17.17;14.52;;;22.20;99.90;;;;;;5031968;28;20225;-76
2022/08/23 07:22:00;;;;;;;17.38;14.35;;;22.30;99.90;;;;;;5028714;28;20637;-76
2022/08/23 07:24:27;;;;;;;19.35;14.88;;;22.40;99.90;;;;;;5028530;28;20206;-77
2022/08/23 07:27:00;;;;;;;17.10;14.23;;;22.60;99.90;;;;;;5020279;28;20554;-77
2022/08/23 07:29:28;;;;;;;19.10;14.55;;;22.80;99.90;;;;;;5026818;28;20240;-77
2022/08/23 07:31:56;;;;;;;17.05;14.25;;;23.00;99.90;;;;;;5028307;28;20218;-74
2022/08/23 07:34:25;;;;;;;17.17;14.65;;;23.20;99.90;;;;;;5037569;28;20224;-77
2022/08/23 07:36:54;;;;;;;19.92;14.23;;;23.40;99.90;;;;;;5027920;28;20267;-76
2022/08/23 07:39:22;;;;;;;14.85;13.25;;;23.80;99.90;;;;;;5027723;28;20218;-76
2022/08/23 07:41:51;;;;;;;14.63;12.40;;;24.50;99.90;;;;;;5027916;28;20209;-76
2022/08/23 07:44:18;;;;;;;14.07;11.38;;;25.40;99.90;;;;;;5037659;28;20233;-77
2022/08/23 07:46:49;;;;;;;13.05;11.50;;;26.40;99.90;;;;;;5030540;28;20705;-76
2022/08/23 07:49:22;;;;;;;16.25;11.15;;;27.30;99.90;;;;;;5027877;28;21047;-76
2022/08/23 07:51:57;;;;;;;15.07;12.13;;;27.70;99.90;;;;;;5028136;28;20210;-76
2022/08/23 07:54:27;;;;;;;14.73;11.18;;;27.90;99.90;;;;;;5027199;28;20670;-76
2022/08/23 07:56:54;;;;;;;14.25;11.48;;;27.90;99.90;;;;;;5028066;28;20213;-77
2022/08/23 07:59:21;;;;;;;15.38;11.93;;;27.90;99.90;;;;;;5027553;28;20675;-78
2022/08/23 08:01:50;;;;;;;13.98;11.68;;;28.10;99.90;;;;;;5027179;28;20213;-76
2022/08/23 08:04:17;;;;;;;12.82;10.88;;;28.40;99.90;;;;;;5027464;28;20222;-76
2022/08/23 08:06:46;;;;;;;12.65;10.38;;;29.00;99.90;;;;;;5027304;28;20202;-76
2022/08/23 08:09:30;;;;;;;14.35;10.98;;;29.50;99.90;;;;;;5027511;28;20357;-77
2022/08/23 08:11:57;;;;;;;13.70;10.32;;;30.10;99.90;;;;;;5027477;28;20209;-76
2022/08/23 08:14:24;;;;;;;14.38;9.40;;;30.60;99.90;;;;;;5024991;28;20202;-77
2022/08/23 08:16:51;;;;;;;11.55;10.00;;;31.00;99.90;;;;;;5027434;28;20576;-77
2022/08/23 08:19:20;;;;;;;13.43;9.82;;;31.40;99.90;;;;;;5026697;28;20214;-77
2022/08/23 08:21:47;;;;;;;15.85;9.73;;;31.80;99.90;;;;;;5036529;28;20972;-77
2022/08/23 08:24:17;;;;;;;11.18;9.63;;;32.10;99.90;;;;;;5027575;28;20210;-78
2022/08/23 08:26:46;;;;;;;12.80;9.30;;;32.30;99.90;;;;;;5027895;28;20794;-77
2022/08/23 08:29:13;;;;;;;13.70;8.98;;;32.40;99.90;;;;;;5027343;28;20263;-78
2022/08/23 08:31:41;;;;;;;14.30;9.18;;;32.40;99.50;;;;;;5027737;28;20233;-78
2022/08/23 08:34:08;;;;;;;12.77;9.48;;;32.70;98.90;;;;;;5027500;28;20598;-77
2022/08/23 08:36:45;;;;;;;13.30;8.98;;;32.70;98.00;;;;;;5027134;28;20206;-79
2022/08/23 08:39:18;;;;;;;13.18;8.43;;;33.00;97.10;;;;;;5026572;28;20544;-76
2022/08/23 08:41:54;;;;;;;12.65;7.85;;;33.00;96.60;;;;;;5027499;28;20205;-79
2022/08/23 08:44:46;;;;;;;11.27;7.60;;;33.20;95.90;;;;;;5027328;28;20720;-78
2022/08/23 08:47:23;;;;;;;12.00;8.02;;;33.30;94.50;;;;;;5033059;28;20261;-78
2022/08/23 08:50:13;;;;;;;11.18;7.82;;;33.40;94.80;;;;;;5026055;28;20565;-77
2022/08/23 08:53:05;;;;;;;9.63;6.82;;;33.70;93.90;;;;;;5023252;28;20206;-79
2022/08/23 08:56:03;;;;;;;9.93;7.15;;;33.70;93.80;;;;;;5005126;28;20701;-76
2022/08/23 08:58:51;;;;;;;10.20;6.63;;;33.80;92.40;;;;;;5025385;28;20687;-77
2022/08/23 09:01:44;;;;;;;7.80;6.03;;;33.80;92.50;;;;;;5032190;28;20197;-78
2022/08/23 09:04:19;;;;;;;8.90;5.88;;;33.90;93.10;;;;;;5011020;28;20585;-79
2022/08/23 09:07:26;;;;;;;8.82;5.07;;;34.00;93.10;;;;;;5024533;28;20308;-78
2022/08/23 09:10:12;;;;;;;8.02;6.18;;;34.20;91.40;;;;;;5027074;28;20299;-79
2022/08/23 09:13:11;;;;;;;7.97;5.57;;;34.30;92.90;;;;;;5026488;28;20311;-79
2022/08/23 09:15:54;;;;;;;9.90;6.10;;;34.30;90.90;;;;;;5027368;28;20214;-78
2022/08/23 09:18:23;;;;;;;9.35;5.30;;;34.30;91.40;;;;;;5023490;28;20685;-76
2022/08/23 09:21:23;;;;;;;10.32;5.35;;;34.20;91.00;;;;;;5025810;28;20217;-78
2022/08/23 09:27:43;;;;;;;9.90;4.00;;;34.00;90.70;;;;;;5014786;28;20692;-79
2022/08/23 09:30:30;;;;;;;;;;;;;;;;;;;;;
2022/08/23 09:37:12;;;;;;;6.55;3.97;;;33.90;85.80;;;;;;5019938;28;20256;-77
2022/08/23 09:40:03;;;;;;;7.20;3.72;;;33.90;84.90;;;;;;5027191;28;20669;-78
2022/08/23 09:42:36;;;;;;;8.77;4.30;;;33.90;85.60;;;;;;5026176;28;20643;-77
2022/08/23 09:45:22;;;;;;;6.35;3.90;;;33.90;85.70;;;;;;5029583;28;20242;-78
2022/08/23 09:47:49;;;;;;;7.63;4.40;;;33.80;85.70;;;;;;5027433;28;20241;-79
2022/08/23 09:50:25;;;;;;;6.97;3.90;;;33.70;85.70;;;;;;5029978;28;20311;-77
2022/08/23 09:53:10;;;;;;;8.50;3.70;;;33.80;87.00;;;;;;5030148;28;20236;-78
2022/08/23 09:55:50;;;;;;;7.43;4.03;;;33.90;85.40;;;;;;5026196;28;20360;-77
2022/08/23 09:58:28;;;;;;;5.32;3.70;;;33.90;87.80;;;;;;5030551;28;20209;-80
2022/08/23 10:01:17;;;;;;;6.68;3.55;;;33.90;83.10;;;;;;5029355;28;20267;-78
2022/08/23 10:03:45;;;;;;;6.57;3.50;;;33.80;81.40;;;;;;5026367;28;20640;-77
2022/08/23 10:06:27;;;;;;;10.70;3.75;;;33.70;83.00;;;;;;5030524;28;20267;-78
2022/08/23 10:09:03;;;;;;;8.00;4.00;;;33.70;81.00;;;;;;5029374;28;20233;-78
2022/08/23 10:11:44;;;;;;;6.20;3.30;;;33.50;80.30;;;;;;5029778;28;20248;-76
2022/08/23 10:14:18;;;;;;;9.55;3.75;;;33.30;80.90;;;;;;5027038;28;20213;-78
2022/08/23 10:17:09;;;;;;;10.38;3.90;;;33.10;80.10;;;;;;5025061;28;20213;-78
2022/08/23 10:19:48;;;;;;;5.13;3.20;;;32.90;80.10;;;;;;5031118;28;20280;-78
2022/08/23 10:22:22;;;;;;;5.47;3.38;;;32.80;79.40;;;;;;5029996;28;20221;-78
2022/08/23 10:25:22;;;;;;;7.18;3.40;;;32.60;80.50;;;;;;5029215;28;20736;-77
2022/08/23 10:31:17;;;;;;;5.97;3.70;;;32.70;81.00;;;;;;5027299;28;20198;-77
2022/08/23 10:34:23;;;;;;;6.55;3.70;;;32.90;80.30;;;;;;5029106;28;20552;-79
2022/08/23 10:37:02;;;;;;;5.72;4.00;;;33.10;81.00;;;;;;5026803;28;20542;-79
2022/08/23 10:39:30;;;;;;;5.50;4.00;;;33.20;80.40;;;;;;5025241;28;20206;-80
2022/08/23 10:42:06;;;;;;;7.03;3.53;;;33.30;79.60;;;;;;5030839;28;20214;-80
2022/08/23 10:44:49;;;;;;;8.10;4.00;;;33.40;78.80;;;;;;5029587;28;20205;-80
2022/08/23 10:47:40;;;;;;;7.43;4.88;;;33.40;78.10;;;;;;5028261;28;20221;-79
2022/08/23 10:50:11;;;;;;;8.05;4.82;;;33.50;77.80;;;;;;5023765;28;20272;-80
2022/08/23 10:53:03;;;;;;;8.68;4.07;;;33.30;77.80;;;;;;5028417;28;20640;-80
2022/08/23 10:55:53;;;;;;;6.97;4.90;;;33.30;79.10;;;;;;5028566;28;20210;-80
2022/08/23 10:58:24;;;;;;;9.70;5.25;;;33.30;78.50;;;;;;5028706;28;20210;-78
2022/08/23 11:00:56;;;;;;;5.78;4.07;;;33.20;77.20;;;;;;5021550;28;20727;-78
2022/08/23 11:03:29;;;;;;;7.22;3.92;;;33.20;77.60;;;;;;5027956;28;20304;-80
2022/08/23 11:06:33;;;;;;;5.78;3.83;;;33.10;77.90;;;;;;5027524;28;20295;-78
2022/08/23 11:09:20;;;;;;;5.47;3.35;;;33.10;77.80;;;;;;5026026;28;20967;-79
2022/08/23 11:12:09;;;;;;;8.40;3.70;;;33.20;75.60;;;;;;5019318;28;20230;-79
2022/08/23 11:14:44;;;;;;;7.00;3.47;;;33.30;76.00;;;;;;5026269;28;20209;-79
2022/08/23 11:17:26;;;;;;;7.50;2.97;;;33.30;75.40;;;;;;5027082;28;20225;-79
2022/08/23 11:20:08;;;;;;;5.00;3.45;;;33.30;74.50;;;;;;5027847;28;20214;-79
2022/08/23 11:23:09;;;;;;;5.55;2.95;;;33.20;73.60;;;;;;5026184;28;20213;-78
2022/08/23 11:25:50;;;;;;;7.28;3.17;;;33.20;72.30;;;;;;5027813;28;20214;-81
2022/08/23 11:29:51;;;;;;;6.53;3.28;;;33.10;74.30;;;;;;4985692;28;20358;-77
2022/08/23 11:32:41;;;;;;;6.85;2.83;;;33.10;72.20;;;;;;4951930;28;20204;-79
2022/08/23 11:35:46;;;;;;;4.40;2.65;;;33.10;70.90;;;;;;5004893;28;20280;-79
2022/08/23 11:38:47;;;;;;;6.15;3.00;;;33.10;70.20;;;;;;5021656;28;20649;-78
2022/08/23 11:41:48;;;;;;;8.73;3.40;;;33.20;70.40;;;;;;5012060;28;20231;-78
2022/08/23 11:44:45;;;;;;;4.95;2.83;;;33.30;70.90;;;;;;5026244;28;20220;-78
2022/08/23 11:47:12;;;;;;;6.65;3.33;;;33.30;70.30;;;;;;5013520;28;20588;-78
2022/08/23 11:49:50;;;;;;;10.13;3.65;;;33.10;70.30;;;;;;5027563;28;20230;-79
2022/08/23 11:52:46;;;;;;;8.07;3.22;;;33.10;70.20;;;;;;5020251;28;20653;-79
2022/08/23 11:55:31;;;;;;;6.78;3.17;;;33.00;70.70;;;;;;5025690;28;20193;-77
2022/08/23 11:58:26;;;;;;;4.57;3.08;;;33.00;71.10;;;;;;5023315;28;20640;-80
2022/08/23 12:01:07;;;;;;;6.93;3.10;;;33.10;70.70;;;;;;5015963;28;20214;-78
2022/08/23 12:03:51;;;;;;;7.90;3.30;;;33.10;71.20;;;;;;5025620;28;20224;-79
2022/08/23 12:06:18;;;;;;;6.43;3.03;;;33.20;72.00;;;;;;5022323;28;20615;-79
2022/08/23 12:09:00;;;;;;;5.30;3.10;;;33.30;71.10;;;;;;5026663;28;20233;-79
2022/08/23 12:11:55;;;;;;;4.93;2.75;;;33.30;70.00;;;;;;5038844;28;20204;-79
2022/08/23 12:14:45;;;;;;;6.40;3.50;;;33.20;69.20;;;;;;5026819;28;20214;-77
2022/08/23 12:35:33;;;;;;;5.10;3.60;;;33.10;70.00;;;;;;4889116;29;20222;-80
2022/08/23 12:38:00;;;;;;;4.53;3.60;;;33.10;70.00;;;;;;4908485;29;20265;-77
2022/08/23 12:40:35;;;;;;;5.07;3.45;;;33.10;69.30;;;;;;4909669;29;20673;-79
2022/08/23 12:43:35;;;;;;;7.45;3.38;;;32.90;69.10;;;;;;4894603;29;20677;-79
2022/08/23 12:46:02;;;;;;;6.50;3.33;;;33.00;69.30;;;;;;4905880;29;20202;-78
2022/08/23 12:48:43;;;;;;;4.82;3.05;;;32.90;69.50;;;;;;4907908;29;20241;-77
2022/08/23 12:51:12;;;;;;;6.13;3.35;;;32.90;69.50;;;;;;4909328;29;20233;-79
2022/08/23 12:53:43;;;;;;;6.05;2.95;;;32.80;69.10;;;;;;4903412;29;20289;-77
2022/08/23 12:56:24;;;;;;;4.75;3.30;;;32.70;69.70;;;;;;4906421;29;20237;-78
2022/08/23 12:59:03;;;;;;;7.68;3.72;;;32.70;69.60;;;;;;4893101;29;20256;-80
2022/08/23 13:01:33;;;;;;;7.25;3.95;;;32.60;70.20;;;;;;4909657;29;20217;-80
2022/08/23 13:04:12;;;;;;;5.03;3.47;;;32.60;70.50;;;;;;4909157;29;20316;-79
2022/08/23 13:06:57;;;;;;;7.18;3.20;;;32.60;70.60;;;;;;4909127;29;20686;-80
2022/08/23 13:09:35;;;;;;;5.00;3.15;;;32.60;69.10;;;;;;4908739;29;20332;-79
2022/08/23 13:12:05;;;;;;;4.57;3.25;;;32.50;69.40;;;;;;4909213;29;20792;-79
2022/08/23 13:14:39;;;;;;;4.93;3.05;;;32.50;69.70;;;;;;4907790;29;20574;-77
2022/08/23 13:17:17;;;;;;;5.93;3.10;;;32.50;69.00;;;;;;4909419;29;20206;-79
2022/08/23 13:19:46;;;;;;;5.50;3.30;;;32.50;69.20;;;;;;4908960;29;20594;-79
2022/08/23 13:22:24;;;;;;;8.27;3.38;;;32.50;70.00;;;;;;4902575;29;20210;-78
2022/08/23 13:25:04;;;;;;;7.53;3.20;;;32.50;70.10;;;;;;4907534;29;20317;-78
2022/08/23 13:28:00;;;;;;;4.57;2.90;;;32.50;70.70;;;;;;4910693;29;20619;-78
2022/08/23 13:30:30;;;;;;;6.53;3.20;;;32.30;70.90;;;;;;4911840;29;20681;-78
2022/08/23 13:33:06;;;;;;;6.22;3.45;;;32.10;70.80;;;;;;4909038;29;20301;-77
2022/08/23 13:35:35;;;;;;;7.15;3.53;;;32.10;71.50;;;;;;4905556;29;20305;-76
2022/08/23 13:38:14;;;;;;;5.28;3.20;;;32.00;72.40;;;;;;4910529;29;20584;-77
2022/08/23 13:40:59;;;;;;;6.72;3.53;;;31.90;72.60;;;;;;4910501;29;20217;-77
2022/08/23 13:43:32;;;;;;;6.47;3.40;;;31.90;72.50;;;;;;4911434;29;20655;-76
2022/08/23 13:46:18;;;;;;;5.75;3.58;;;31.80;73.70;;;;;;4909955;29;20265;-78
2022/08/23 13:48:53;;;;;;;7.50;3.45;;;31.70;72.70;;;;;;4908990;29;20287;-76